createdAt,value
2019-05-12T00:00:18.518Z,56.82
2019-05-12T00:01:18.875Z,56.63
2019-05-12T00:02:18.505Z,55.96
2019-05-12T00:03:19.014Z,56.16
2019-05-12T00:04:19.032Z,56.92
2019-05-12T00:05:18.857Z,56.63
2019-05-12T00:06:18.606Z,57.11
2019-05-12T00:07:18.639Z,56.54
2019-05-12T00:08:18.980Z,56.92
2019-05-12T00:09:18.948Z,57.40
2019-05-12T00:10:18.727Z,57.59
2019-05-12T00:11:18.745Z,57.02
2019-05-12T00:12:18.748Z,57.31
2019-05-12T00:13:19.126Z,56.92
2019-05-12T00:14:18.795Z,57.21
2019-05-12T00:15:19.557Z,56.92
2019-05-12T00:16:18.853Z,57.21
2019-05-12T00:17:18.947Z,57.50
2019-05-12T00:18:18.890Z,57.97
2019-05-12T00:19:18.909Z,58.07
2019-05-12T00:20:18.953Z,57.87
2019-05-12T00:21:19.011Z,57.78
2019-05-12T00:22:19.016Z,57.68
2019-05-12T00:23:27.451Z,57.97
2019-05-12T00:24:19.039Z,58.54
2019-05-12T00:25:19.070Z,58.26
2019-05-12T00:26:19.077Z,57.97
2019-05-12T00:27:19.101Z,57.87
2019-05-12T00:28:19.139Z,58.26
2019-05-12T00:29:19.154Z,58.73
2019-05-12T00:30:19.179Z,58.93
2019-05-12T00:31:19.244Z,58.45
2019-05-12T00:32:19.222Z,58.83
2019-05-12T00:33:19.245Z,58.83
2019-05-12T00:34:19.285Z,58.93
2019-05-12T00:35:19.296Z,58.45
2019-05-12T00:36:19.333Z,58.26
2019-05-12T00:37:19.427Z,58.54
2019-05-12T00:38:19.399Z,58.73
2019-05-12T00:39:19.390Z,58.54
2019-05-12T00:40:19.414Z,59.02
2019-05-12T00:41:19.448Z,59.50
2019-05-12T00:42:19.471Z,59.12
2019-05-12T00:43:19.486Z,59.09
2019-05-12T00:44:19.509Z,59.98
2019-05-12T00:45:19.533Z,59.85
2019-05-12T00:46:19.570Z,59.88
2019-05-12T00:47:19.584Z,60.07
2019-05-12T00:48:19.694Z,60.36
2019-05-12T00:49:19.635Z,60.07
2019-05-12T00:50:19.654Z,60.24
2019-05-12T00:51:19.682Z,60.24
2019-05-12T00:52:19.723Z,59.95
2019-05-12T00:53:19.725Z,60.55
2019-05-12T00:54:19.768Z,60.36
2019-05-12T00:55:19.771Z,60.74
2019-05-12T00:56:19.803Z,60.07
2019-05-12T00:57:19.820Z,60.64
2019-05-12T00:58:19.881Z,60.52
2019-05-12T00:59:19.869Z,60.46
2019-05-12T01:00:19.910Z,60.52
2019-05-12T01:01:19.918Z,60.93
2019-05-12T01:02:19.997Z,61.10
2019-05-12T01:03:20.046Z,60.46
2019-05-12T01:04:19.990Z,61.32
2019-05-12T01:05:20.020Z,61.38
2019-05-12T01:06:20.036Z,61.76
2019-05-12T01:07:20.060Z,61.38
2019-05-12T01:08:20.084Z,61.29
2019-05-12T01:09:20.111Z,61.98
2019-05-12T01:10:20.134Z,61.66
2019-05-12T01:11:20.159Z,61.95
2019-05-12T01:12:20.182Z,62.15
2019-05-12T01:13:20.211Z,61.76
2019-05-12T01:14:20.242Z,61.95
2019-05-12T01:15:20.262Z,61.86
2019-05-12T01:16:20.277Z,61.76
2019-05-12T01:17:20.302Z,62.05
2019-05-12T01:18:20.320Z,62.43
2019-05-12T01:19:20.352Z,62.24
2019-05-12T01:20:20.388Z,62.37
2019-05-12T01:21:20.444Z,62.43
2019-05-12T01:22:20.461Z,62.62
2019-05-12T01:23:23.378Z,61.95
2019-05-12T01:24:20.469Z,62.24
2019-05-12T01:25:20.496Z,62.71
2019-05-12T01:26:20.514Z,62.24
2019-05-12T01:27:20.632Z,62.52
2019-05-12T01:28:20.561Z,63.39
2019-05-12T01:29:20.602Z,63.00
2019-05-12T01:30:20.615Z,62.71
2019-05-12T01:31:20.648Z,62.81
2019-05-12T01:32:20.656Z,62.91
2019-05-12T01:33:20.746Z,62.71
2019-05-12T01:34:20.752Z,62.81
2019-05-12T01:35:20.732Z,63.00
2019-05-12T01:36:20.764Z,63.00
2019-05-12T01:37:20.817Z,63.20
2019-05-12T01:38:20.800Z,63.13
2019-05-12T01:39:20.835Z,63.23
2019-05-12T01:40:20.891Z,63.20
2019-05-12T01:41:20.926Z,63.29
2019-05-12T01:42:20.895Z,62.91
2019-05-12T01:43:21.414Z,63.10
2019-05-12T01:44:20.942Z,64.25
2019-05-12T01:45:20.977Z,63.96
2019-05-12T01:46:20.993Z,64.05
2019-05-12T01:47:21.287Z,63.76
2019-05-12T01:48:21.194Z,64.05
2019-05-12T01:49:21.061Z,63.86
2019-05-12T01:50:21.089Z,63.76
2019-05-12T01:51:21.126Z,64.05
2019-05-12T01:52:21.130Z,63.67
2019-05-12T01:53:21.295Z,64.05
2019-05-12T01:54:21.402Z,63.86
2019-05-12T01:55:21.235Z,64.05
2019-05-12T01:56:21.234Z,64.43
2019-05-12T01:57:21.267Z,64.43
2019-05-12T01:58:21.275Z,64.62
2019-05-12T01:59:21.307Z,64.25
2019-05-12T02:00:21.337Z,64.15
2019-05-12T02:01:21.461Z,64.43
2019-05-12T02:02:21.390Z,64.81
2019-05-12T02:03:21.396Z,64.91
2019-05-12T02:04:21.419Z,64.53
2019-05-12T02:05:21.447Z,64.43
2019-05-12T02:06:21.487Z,64.53
2019-05-12T02:07:21.489Z,64.62
2019-05-12T02:08:21.523Z,64.53
2019-05-12T02:09:21.537Z,64.81
2019-05-12T02:10:21.566Z,64.81
2019-05-12T02:11:21.584Z,64.43
2019-05-12T02:12:21.625Z,64.81
2019-05-12T02:13:21.640Z,63.86
2019-05-12T02:14:21.743Z,64.43
2019-05-12T02:15:21.680Z,64.62
2019-05-12T02:16:21.721Z,65.01
2019-05-12T02:17:21.727Z,64.91
2019-05-12T02:18:21.799Z,64.81
2019-05-12T02:19:21.789Z,64.72
2019-05-12T02:20:21.806Z,64.43
2019-05-12T02:21:21.827Z,64.53
2019-05-12T02:22:21.854Z,64.72
2019-05-12T02:23:21.869Z,64.53
2019-05-12T02:24:26.995Z,65.01
2019-05-12T02:25:21.931Z,64.91
2019-05-12T02:26:21.941Z,65.01
2019-05-12T02:27:21.967Z,64.81
2019-05-12T02:28:22.000Z,65.10
2019-05-12T02:29:22.012Z,65.20
2019-05-12T02:30:22.037Z,65.39
2019-05-12T02:31:22.090Z,65.39
2019-05-12T02:32:25.307Z,65.39
2019-05-12T02:33:24.449Z,65.39
2019-05-12T02:34:25.078Z,66.06
2019-05-12T02:35:24.759Z,65.77
2019-05-12T02:36:25.360Z,65.67
2019-05-12T02:37:22.215Z,65.87
2019-05-12T02:38:25.034Z,66.06
2019-05-12T02:39:24.786Z,66.35
2019-05-12T02:40:24.914Z,66.53
2019-05-12T02:41:25.667Z,66.53
2019-05-12T02:42:24.444Z,66.53
2019-05-12T02:43:24.444Z,66.63
2019-05-12T02:44:24.709Z,66.53
2019-05-12T02:45:25.374Z,66.15
2019-05-12T02:46:25.197Z,66.44
2019-05-12T02:47:24.088Z,66.25
2019-05-12T02:48:24.550Z,66.44
2019-05-12T02:49:24.450Z,66.63
2019-05-12T02:50:24.758Z,66.72
2019-05-12T02:51:24.798Z,66.53
2019-05-12T02:52:25.007Z,66.53
2019-05-12T02:53:24.838Z,66.92
2019-05-12T02:54:26.958Z,67.11
2019-05-12T02:55:25.635Z,67.01
2019-05-12T02:56:25.646Z,66.72
2019-05-12T02:57:25.599Z,67.49
2019-05-12T02:58:25.402Z,67.21
2019-05-12T02:59:25.245Z,67.30
2019-05-12T03:00:24.206Z,67.58
2019-05-12T03:01:24.495Z,67.30
2019-05-12T03:02:24.404Z,67.11
2019-05-12T03:03:25.111Z,66.53
2019-05-12T03:04:24.716Z,67.11
2019-05-12T03:05:24.820Z,67.11
2019-05-12T03:06:25.143Z,67.30
2019-05-12T03:07:25.403Z,67.01
2019-05-12T03:08:25.694Z,67.30
2019-05-12T03:09:24.463Z,67.11
2019-05-12T03:10:25.273Z,67.30
2019-05-12T03:11:24.773Z,67.01
2019-05-12T03:12:25.619Z,66.72
2019-05-12T03:13:25.296Z,66.92
2019-05-12T03:14:25.202Z,67.40
2019-05-12T03:15:25.043Z,67.58
2019-05-12T03:16:25.719Z,67.77
2019-05-12T03:17:25.273Z,67.97
2019-05-12T03:18:25.154Z,67.77
2019-05-12T03:19:25.221Z,68.16
2019-05-12T03:20:24.201Z,68.06
2019-05-12T03:21:24.551Z,68.54
2019-05-12T03:22:25.287Z,67.97
2019-05-12T03:23:24.834Z,68.16
2019-05-12T03:24:24.980Z,68.16
2019-05-12T03:25:28.983Z,68.35
2019-05-12T03:26:24.676Z,68.35
2019-05-12T03:27:25.705Z,68.35
2019-05-12T03:28:25.513Z,68.26
2019-05-12T03:29:25.057Z,68.35
2019-05-12T03:30:28.986Z,68.26
2019-05-12T03:31:30.625Z,68.73
2019-05-12T03:32:27.802Z,68.73
2019-05-12T03:33:27.936Z,68.44
2019-05-12T03:34:28.723Z,68.44
2019-05-12T03:35:32.646Z,68.44
2019-05-12T03:36:32.475Z,68.44
2019-05-12T03:37:30.677Z,69.49
2019-05-12T03:38:27.223Z,69.21
2019-05-12T03:39:25.084Z,68.63
2019-05-12T03:40:24.945Z,68.73
2019-05-12T03:41:25.057Z,69.40
2019-05-12T03:42:25.012Z,69.31
2019-05-12T03:43:24.483Z,68.92
2019-05-12T03:44:25.224Z,68.73
2019-05-12T03:45:25.148Z,68.92
2019-05-12T03:46:24.790Z,68.82
2019-05-12T03:47:25.168Z,69.11
2019-05-12T03:48:25.212Z,68.82
2019-05-12T03:49:24.603Z,68.35
2019-05-12T03:50:24.612Z,68.92
2019-05-12T03:51:25.137Z,68.35
2019-05-12T03:52:24.616Z,68.54
2019-05-12T03:53:24.947Z,68.54
2019-05-12T03:54:24.595Z,68.54
2019-05-12T03:55:35.516Z,68.54
2019-05-12T03:56:25.903Z,68.92
2019-05-12T03:57:25.323Z,68.63
2019-05-12T03:58:25.571Z,68.35
2019-05-12T03:59:25.549Z,68.54
2019-05-12T04:00:24.912Z,68.44
2019-05-12T04:01:25.570Z,68.44
2019-05-12T04:02:25.086Z,68.35
2019-05-12T04:03:24.770Z,68.35
2019-05-12T04:04:24.578Z,68.26
2019-05-12T04:05:24.628Z,68.16
2019-05-12T04:06:24.827Z,68.26
2019-05-12T04:07:24.538Z,68.73
2019-05-12T04:08:24.718Z,68.16
2019-05-12T04:09:24.730Z,68.35
2019-05-12T04:10:24.850Z,68.16
2019-05-12T04:11:25.171Z,68.54
2019-05-12T04:12:25.519Z,68.35
2019-05-12T04:13:26.533Z,68.35
2019-05-12T04:14:25.381Z,68.73
2019-05-12T04:15:25.578Z,68.06
2019-05-12T04:16:24.980Z,68.26
2019-05-12T04:17:24.624Z,67.77
2019-05-12T04:18:24.865Z,68.73
2019-05-12T04:19:25.054Z,68.54
2019-05-12T04:20:25.613Z,68.54
2019-05-12T04:21:24.769Z,68.06
2019-05-12T04:22:25.078Z,68.16
2019-05-12T04:23:25.118Z,68.35
2019-05-12T04:24:25.073Z,68.54
2019-05-12T04:25:25.211Z,68.35
2019-05-12T04:26:25.553Z,68.54
2019-05-12T04:27:25.333Z,67.97
2019-05-12T04:28:24.849Z,67.97
2019-05-12T04:29:25.179Z,68.06
2019-05-12T04:30:25.232Z,67.87
2019-05-12T04:31:25.250Z,68.54
2019-05-12T04:32:25.233Z,68.06
2019-05-12T04:33:25.843Z,67.87
2019-05-12T04:34:25.358Z,68.73
2019-05-12T04:35:25.425Z,67.97
2019-05-12T04:36:25.182Z,68.16
2019-05-12T04:37:25.195Z,67.58
2019-05-12T04:38:25.141Z,67.58
2019-05-12T04:39:25.407Z,68.54
2019-05-12T04:40:25.114Z,67.87
2019-05-12T04:41:26.212Z,67.40
2019-05-12T04:42:25.361Z,67.77
2019-05-12T04:43:25.653Z,68.26
2019-05-12T04:44:25.420Z,66.88
2019-05-12T04:45:25.805Z,68.06
2019-05-12T04:46:25.566Z,68.16
2019-05-12T04:47:25.476Z,68.06
2019-05-12T04:48:26.033Z,68.35
2019-05-12T04:49:25.398Z,68.16
2019-05-12T04:50:25.355Z,68.26
2019-05-12T04:51:26.175Z,68.26
2019-05-12T04:52:25.398Z,68.16
2019-05-12T04:53:25.595Z,68.16
2019-05-12T04:54:25.458Z,68.41
2019-05-12T04:55:25.867Z,68.35
2019-05-12T04:56:25.524Z,68.35
2019-05-12T04:57:25.774Z,68.82
2019-05-12T04:58:25.720Z,68.54
2019-05-12T04:59:25.683Z,68.44
2019-05-12T05:00:25.969Z,68.16
2019-05-12T05:01:25.706Z,68.26
2019-05-12T05:02:25.644Z,68.06
2019-05-12T05:03:25.657Z,68.16
2019-05-12T05:04:25.683Z,67.87
2019-05-12T05:05:25.710Z,67.97
2019-05-12T05:06:25.753Z,68.26
2019-05-12T05:07:25.759Z,67.30
2019-05-12T05:08:25.788Z,67.97
2019-05-12T05:09:25.802Z,67.97
2019-05-12T05:10:25.832Z,68.35
2019-05-12T05:11:25.844Z,66.88
2019-05-12T05:12:25.872Z,66.88
2019-05-12T05:13:25.894Z,67.97
2019-05-12T05:14:25.913Z,67.40
2019-05-12T05:15:25.946Z,66.92
2019-05-12T05:16:25.984Z,67.21
2019-05-12T05:17:25.984Z,67.49
2019-05-12T05:18:26.010Z,67.11
2019-05-12T05:19:26.040Z,67.11
2019-05-12T05:20:26.054Z,67.11
2019-05-12T05:21:26.092Z,67.40
2019-05-12T05:22:26.106Z,67.21
2019-05-12T05:23:26.130Z,66.92
2019-05-12T05:24:26.155Z,67.21
2019-05-12T05:25:26.190Z,67.40
2019-05-12T05:26:28.262Z,67.11
2019-05-12T05:27:26.218Z,67.11
2019-05-12T05:28:26.246Z,67.36
2019-05-12T05:29:26.284Z,67.49
2019-05-12T05:30:26.292Z,66.82
2019-05-12T05:31:26.314Z,66.44
2019-05-12T05:32:26.342Z,66.63
2019-05-12T05:33:26.364Z,66.25
2019-05-12T05:34:26.391Z,65.87
2019-05-12T05:35:28.927Z,65.58
2019-05-12T05:36:26.432Z,65.77
2019-05-12T05:37:30.692Z,66.63
2019-05-12T05:38:26.493Z,66.72
2019-05-12T05:39:26.502Z,65.77
2019-05-12T05:40:30.274Z,66.44
2019-05-12T05:41:26.568Z,65.96
2019-05-12T05:42:30.724Z,66.53
2019-05-12T05:43:26.598Z,66.63
2019-05-12T05:44:29.187Z,65.58
2019-05-12T05:45:26.673Z,66.35
2019-05-12T05:46:26.682Z,66.25
2019-05-12T05:47:28.575Z,66.25
2019-05-12T05:48:26.715Z,66.44
2019-05-12T05:49:26.744Z,66.15
2019-05-12T05:50:29.493Z,66.63
2019-05-12T05:51:26.787Z,66.25
2019-05-12T05:52:33.444Z,66.44
2019-05-12T05:53:26.838Z,66.44
2019-05-12T05:54:31.485Z,66.44
2019-05-12T05:55:26.884Z,66.35
2019-05-12T05:56:38.793Z,66.63
2019-05-12T05:57:29.751Z,66.15
2019-05-12T05:58:26.951Z,66.15
2019-05-12T05:59:31.291Z,66.06
2019-05-12T06:00:27.013Z,66.53
2019-05-12T06:01:27.024Z,66.25
2019-05-12T06:02:32.006Z,66.53
2019-05-12T06:03:27.970Z,66.06
2019-05-12T06:04:27.122Z,65.96
2019-05-12T06:05:30.825Z,66.35
2019-05-12T06:06:27.160Z,66.53
2019-05-12T06:07:34.973Z,66.35
2019-05-12T06:08:27.195Z,66.06
2019-05-12T06:09:27.217Z,65.77
2019-05-12T06:10:35.424Z,66.15
2019-05-12T06:11:28.592Z,65.77
2019-05-12T06:12:27.283Z,66.25
2019-05-12T06:13:31.682Z,66.72
2019-05-12T06:14:27.335Z,66.35
2019-05-12T06:15:29.771Z,66.15
2019-05-12T06:16:27.385Z,66.15
2019-05-12T06:17:27.417Z,66.44
2019-05-12T06:18:29.074Z,66.15
2019-05-12T06:19:27.453Z,66.25
2019-05-12T06:20:27.472Z,65.67
2019-05-12T06:21:29.010Z,66.25
2019-05-12T06:22:27.523Z,66.35
2019-05-12T06:23:29.049Z,66.53
2019-05-12T06:24:27.568Z,65.67
2019-05-12T06:25:44.620Z,66.25
2019-05-12T06:26:32.617Z,65.87
2019-05-12T06:27:27.637Z,65.71
2019-05-12T06:28:31.176Z,65.01
2019-05-12T06:29:27.688Z,64.53
2019-05-12T06:30:27.711Z,65.87
2019-05-12T06:31:29.792Z,66.25
2019-05-12T06:32:27.759Z,65.87
2019-05-12T06:33:31.554Z,64.34
2019-05-12T06:34:27.813Z,64.62
2019-05-12T06:35:30.975Z,64.43
2019-05-12T06:36:27.859Z,64.53
2019-05-12T06:37:27.895Z,65.58
2019-05-12T06:38:31.111Z,64.94
2019-05-12T06:39:27.925Z,66.38
2019-05-12T06:40:30.790Z,70.10
2019-05-12T06:41:27.971Z,68.38
2019-05-12T06:42:28.008Z,69.27
2019-05-12T06:43:29.078Z,66.50
2019-05-12T06:44:28.061Z,68.51
2019-05-12T06:45:28.355Z,69.27
2019-05-12T06:46:28.093Z,65.84
2019-05-12T06:47:28.118Z,66.79
2019-05-12T06:48:30.228Z,67.27
2019-05-12T06:49:28.161Z,67.27
2019-05-12T06:50:28.556Z,67.55
2019-05-12T06:51:28.213Z,65.36
2019-05-12T06:52:28.246Z,66.60
2019-05-12T06:53:30.892Z,63.83
2019-05-12T06:54:28.300Z,62.11
2019-05-12T06:55:28.534Z,62.87
2019-05-12T06:56:28.331Z,62.30
2019-05-12T06:57:28.996Z,64.02
2019-05-12T06:58:32.049Z,66.41
2019-05-12T06:59:28.404Z,63.45
2019-05-12T07:00:30.973Z,67.02
2019-05-12T07:01:28.451Z,66.13
2019-05-12T07:02:30.276Z,63.07
2019-05-12T07:03:30.844Z,62.21
2019-05-12T07:04:28.523Z,60.87
2019-05-12T07:05:35.903Z,62.01
2019-05-12T07:06:28.565Z,61.72
2019-05-12T07:07:35.511Z,61.63
2019-05-12T07:08:32.106Z,62.11
2019-05-12T07:09:32.209Z,61.63
2019-05-12T07:10:42.969Z,61.35
2019-05-12T07:11:41.559Z,61.92
2019-05-12T07:12:36.709Z,62.78
2019-05-12T07:13:29.576Z,61.72
2019-05-12T07:14:28.772Z,61.35
2019-05-12T07:15:29.344Z,61.06
2019-05-12T07:16:30.250Z,61.72
2019-05-12T07:17:28.849Z,61.16
2019-05-12T07:18:32.606Z,61.16
2019-05-12T07:19:29.780Z,60.49
2019-05-12T07:20:34.099Z,60.30
2019-05-12T07:21:28.924Z,61.82
2019-05-12T07:22:31.220Z,61.54
2019-05-12T07:23:30.111Z,60.96
2019-05-12T07:24:29.002Z,60.96
2019-05-12T07:25:31.133Z,60.77
2019-05-12T07:26:29.048Z,60.49
2019-05-12T07:27:36.672Z,60.42
2019-05-12T07:28:30.476Z,59.34
2019-05-12T07:29:29.130Z,57.53
2019-05-12T07:30:31.894Z,56.18
2019-05-12T07:31:29.179Z,55.99
2019-05-12T07:32:29.191Z,56.09
2019-05-12T07:33:38.353Z,55.32
2019-05-12T07:34:29.239Z,55.04
2019-05-12T07:35:29.275Z,58.58
2019-05-12T07:36:29.314Z,62.97
2019-05-12T07:37:30.102Z,66.83
2019-05-12T07:38:29.336Z,62.43
2019-05-12T07:39:29.360Z,58.51
2019-05-12T07:40:30.536Z,59.66
2019-05-12T07:41:29.425Z,56.09
2019-05-12T07:42:31.137Z,61.54
2019-05-12T07:43:29.468Z,61.72
2019-05-12T07:44:34.256Z,62.24
2019-05-12T07:45:29.509Z,57.93
2019-05-12T07:46:29.530Z,64.05
2019-05-12T07:47:29.575Z,61.95
2019-05-12T07:48:29.575Z,63.19
2019-05-12T07:49:37.774Z,60.23
2019-05-12T07:50:29.622Z,58.03
2019-05-12T07:51:30.501Z,57.36
2019-05-12T07:52:29.672Z,54.56
2019-05-12T07:53:29.694Z,59.75
2019-05-12T07:54:37.331Z,64.15
2019-05-12T07:55:29.741Z,60.83
2019-05-12T07:56:32.883Z,60.26
2019-05-12T07:57:29.801Z,54.68
2019-05-12T07:58:29.819Z,52.48
2019-05-12T07:59:38.930Z,52.01
2019-05-12T08:00:29.871Z,53.92
2019-05-12T08:01:29.897Z,54.78
2019-05-12T08:02:31.727Z,54.39
2019-05-12T08:03:29.946Z,53.06
2019-05-12T08:04:31.607Z,52.20
2019-05-12T08:05:30.005Z,55.74
2019-05-12T08:06:32.587Z,55.83
2019-05-12T08:07:30.201Z,54.59
2019-05-12T08:08:30.066Z,59.78
2019-05-12T08:09:32.251Z,61.88
2019-05-12T08:10:30.149Z,63.89
2019-05-12T08:11:36.661Z,64.69
2019-05-12T08:12:30.161Z,64.98
2019-05-12T08:13:31.263Z,58.37
2019-05-12T08:14:30.204Z,54.55
2019-05-12T08:15:30.236Z,55.69
2019-05-12T08:16:33.628Z,53.62
2019-05-12T08:17:30.292Z,52.66
2019-05-12T08:18:35.660Z,55.73
2019-05-12T08:19:30.337Z,62.14
2019-05-12T08:20:30.351Z,58.12
2019-05-12T08:21:34.855Z,55.53
2019-05-12T08:22:30.401Z,53.91
2019-05-12T08:23:30.448Z,51.51
2019-05-12T08:24:36.941Z,53.33
2019-05-12T08:25:30.478Z,54.79
2019-05-12T08:26:30.498Z,49.50
2019-05-12T08:27:30.529Z,48.11
2019-05-12T08:28:36.180Z,48.39
2019-05-12T08:29:30.593Z,48.68
2019-05-12T08:30:30.594Z,49.45
2019-05-12T08:31:33.112Z,47.82
2019-05-12T08:32:30.645Z,48.02
2019-05-12T08:33:30.673Z,54.14
2019-05-12T08:34:30.692Z,52.25
2019-05-12T08:35:35.045Z,48.39
2019-05-12T08:36:30.743Z,47.25
2019-05-12T08:37:30.776Z,46.98
2019-05-12T08:38:30.791Z,55.63
2019-05-12T08:39:30.811Z,61.76
2019-05-12T08:40:30.839Z,57.48
2019-05-12T08:41:30.884Z,51.34
2019-05-12T08:42:30.895Z,55.56
2019-05-12T08:43:30.915Z,50.67
2019-05-12T08:44:33.693Z,50.96
2019-05-12T08:45:34.834Z,49.05
2019-05-12T08:46:30.987Z,48.47
2019-05-12T08:47:35.599Z,45.29
2019-05-12T08:48:31.042Z,45.29
2019-05-12T08:49:34.149Z,46.15
2019-05-12T08:50:31.840Z,51.25
2019-05-12T08:51:33.697Z,58.84
2019-05-12T08:52:37.117Z,60.79
2019-05-12T08:53:33.497Z,55.04
2019-05-12T08:54:33.546Z,53.89
2019-05-12T08:55:33.357Z,53.60
2019-05-12T08:56:33.263Z,45.33
2019-05-12T08:57:32.572Z,48.97
2019-05-12T08:58:39.239Z,46.39
2019-05-12T08:59:31.317Z,45.07
2019-05-12T09:00:31.333Z,45.36
2019-05-12T09:01:31.362Z,45.64
2019-05-12T09:02:31.388Z,46.31
2019-05-12T09:03:33.422Z,43.30
2019-05-12T09:04:33.767Z,45.52
2019-05-12T09:05:34.545Z,45.54
2019-05-12T09:06:31.495Z,45.93
2019-05-12T09:07:35.880Z,43.70
2019-05-12T09:08:35.956Z,43.32
2019-05-12T09:09:33.616Z,45.76
2019-05-12T09:10:33.747Z,45.78
2019-05-12T09:11:33.499Z,41.83
2019-05-12T09:12:33.591Z,44.03
2019-05-12T09:13:33.753Z,45.18
2019-05-12T09:14:35.557Z,43.46
2019-05-12T09:15:31.709Z,43.55
2019-05-12T09:16:33.577Z,43.29
2019-05-12T09:17:33.664Z,43.29
2019-05-12T09:18:35.246Z,42.79
2019-05-12T09:19:33.188Z,44.13
2019-05-12T09:20:33.133Z,42.61
2019-05-12T09:21:34.368Z,42.79
2019-05-12T09:22:34.156Z,43.27
2019-05-12T09:23:40.398Z,43.38
2019-05-12T09:24:33.735Z,42.00
2019-05-12T09:25:33.973Z,41.60
2019-05-12T09:26:34.191Z,42.44
2019-05-12T09:27:33.487Z,44.85
2019-05-12T09:28:44.439Z,45.07
2019-05-12T09:29:34.057Z,45.28
2019-05-12T09:30:33.611Z,44.61
2019-05-12T09:31:33.681Z,44.32
2019-05-12T09:32:33.936Z,43.57
2019-05-12T09:33:34.583Z,42.81
2019-05-12T09:34:33.536Z,42.33
2019-05-12T09:35:34.761Z,41.75
2019-05-12T09:36:33.910Z,41.66
2019-05-12T09:37:39.036Z,40.58
2019-05-12T09:38:33.241Z,39.12
2019-05-12T09:39:34.034Z,40.27
2019-05-12T09:40:32.347Z,41.13
2019-05-12T09:41:36.001Z,42.11
2019-05-12T09:42:33.455Z,41.16
2019-05-12T09:43:34.385Z,39.03
2019-05-12T09:44:34.112Z,39.60
2019-05-12T09:45:33.431Z,41.35
2019-05-12T09:46:34.401Z,40.67
2019-05-12T09:47:34.328Z,40.87
2019-05-12T09:48:33.489Z,40.60
2019-05-12T09:49:38.595Z,39.45
2019-05-12T09:50:34.119Z,37.53
2019-05-12T09:51:41.009Z,37.53
2019-05-12T09:52:33.370Z,36.65
2019-05-12T09:53:34.117Z,39.93
2019-05-12T09:54:35.419Z,39.76
2019-05-12T09:55:34.267Z,39.22
2019-05-12T09:56:34.175Z,37.79
2019-05-12T09:57:40.897Z,35.81
2019-05-12T09:58:33.738Z,34.40
2019-05-12T09:59:33.604Z,31.22
2019-05-12T10:00:36.045Z,31.94
2019-05-12T10:01:35.322Z,29.78
2019-05-12T10:02:32.927Z,27.87
2019-05-12T10:03:38.802Z,26.53
2019-05-12T10:04:33.131Z,25.78
2019-05-12T10:05:39.334Z,25.01
2019-05-12T10:06:33.986Z,25.42
2019-05-12T10:07:33.951Z,25.41
2019-05-12T10:08:35.725Z,24.83
2019-05-12T10:09:33.609Z,25.79
2019-05-12T10:10:38.093Z,29.24
2019-05-12T10:11:33.165Z,29.43
2019-05-12T10:12:38.753Z,30.93
2019-05-12T10:13:33.236Z,31.89
2019-05-12T10:14:33.251Z,29.47
2019-05-12T10:15:33.352Z,25.73
2019-05-12T10:16:33.510Z,23.80
2019-05-12T10:17:34.023Z,23.65
2019-05-12T10:18:33.734Z,22.89
2019-05-12T10:19:34.055Z,19.73
2019-05-12T10:20:39.568Z,20.27
2019-05-12T10:21:35.638Z,23.93
2019-05-12T10:22:37.783Z,21.56
2019-05-12T10:23:34.063Z,17.86
2019-05-12T10:24:41.532Z,19.80
2019-05-12T10:25:34.079Z,20.37
2019-05-12T10:26:34.282Z,21.54
2019-05-12T10:27:34.535Z,21.34
2019-05-12T10:28:33.663Z,21.23
2019-05-12T10:29:33.707Z,22.80
2019-05-12T10:30:34.357Z,21.15
2019-05-12T10:31:35.765Z,20.97
2019-05-12T10:32:34.265Z,19.73
2019-05-12T10:33:33.920Z,19.84
2019-05-12T10:34:35.845Z,18.87
2019-05-12T10:35:35.053Z,18.89
2019-05-12T10:36:33.912Z,17.34
2019-05-12T10:37:33.939Z,16.06
2019-05-12T10:38:34.424Z,17.05
2019-05-12T10:39:33.997Z,16.06
2019-05-12T10:40:34.103Z,17.26
2019-05-12T10:41:34.280Z,15.59
2019-05-12T10:42:34.100Z,16.17
2019-05-12T10:43:34.312Z,16.17
2019-05-12T10:44:39.404Z,15.77
2019-05-12T10:45:34.200Z,15.18
2019-05-12T10:46:34.242Z,14.65
2019-05-12T10:47:34.401Z,16.19
2019-05-12T10:48:34.308Z,17.70
2019-05-12T10:49:34.323Z,15.86
2019-05-12T10:50:34.431Z,15.59
2019-05-12T10:51:34.473Z,14.72
2019-05-12T10:52:38.845Z,14.53
2019-05-12T10:53:34.459Z,13.15
2019-05-12T10:54:34.498Z,12.84
2019-05-12T10:55:34.524Z,14.01
2019-05-12T10:56:34.893Z,13.68
2019-05-12T10:57:34.592Z,13.68
2019-05-12T10:58:34.632Z,13.31
2019-05-12T10:59:38.787Z,13.42
2019-05-12T11:00:34.700Z,12.68
2019-05-12T11:01:38.393Z,14.89
2019-05-12T11:02:34.762Z,18.05
2019-05-12T11:03:34.814Z,15.73
2019-05-12T11:04:38.252Z,14.78
2019-05-12T11:05:34.870Z,14.29
2019-05-12T11:06:39.758Z,13.62
2019-05-12T11:07:34.928Z,13.63
2019-05-12T11:08:34.966Z,11.84
2019-05-12T11:09:35.014Z,13.62
2019-05-12T11:10:35.030Z,13.84
2019-05-12T11:11:42.351Z,14.72
2019-05-12T11:12:35.103Z,14.70
2019-05-12T11:13:35.151Z,13.72
2019-05-12T11:14:35.181Z,14.22
2019-05-12T11:15:39.545Z,13.42
2019-05-12T11:16:35.239Z,14.68
2019-05-12T11:17:35.276Z,14.89
2019-05-12T11:18:35.309Z,14.70
2019-05-12T11:19:35.346Z,14.41
2019-05-12T11:20:35.374Z,13.69
2019-05-12T11:21:35.410Z,16.19
2019-05-12T11:22:35.452Z,17.25
2019-05-12T11:23:35.478Z,15.77
2019-05-12T11:24:35.509Z,16.00
2019-05-12T11:25:35.546Z,19.02
2019-05-12T11:26:35.612Z,19.35
2019-05-12T11:27:35.608Z,19.60
2019-05-12T11:28:35.640Z,18.42
2019-05-12T11:29:45.747Z,17.35
2019-05-12T11:30:35.706Z,16.55
2019-05-12T11:31:35.736Z,16.48
2019-05-12T11:32:37.898Z,20.16
2019-05-12T11:33:35.803Z,21.41
2019-05-12T11:34:35.840Z,19.81
2019-05-12T11:35:35.876Z,24.26
2019-05-12T11:36:35.896Z,23.38
2019-05-12T11:37:35.937Z,21.59
2019-05-12T11:38:35.960Z,25.46
2019-05-12T11:39:41.337Z,28.08
2019-05-12T11:40:36.022Z,27.12
2019-05-12T11:41:36.090Z,26.82
2019-05-12T11:42:36.080Z,27.50
2019-05-12T11:43:36.113Z,28.18
2019-05-12T11:44:36.140Z,28.26
2019-05-12T11:45:36.172Z,27.97
2019-05-12T11:46:36.470Z,29.42
2019-05-12T11:47:37.362Z,27.19
2019-05-12T11:48:40.377Z,27.94
2019-05-12T11:49:36.290Z,29.79
2019-05-12T11:50:40.402Z,29.29
2019-05-12T11:51:36.348Z,29.10
2019-05-12T11:52:36.380Z,29.76
2019-05-12T11:53:36.406Z,30.34
2019-05-12T11:54:41.159Z,29.47
2019-05-12T11:55:36.494Z,29.76
2019-05-12T11:56:40.387Z,30.82
2019-05-12T11:57:36.532Z,30.13
2019-05-12T11:58:41.374Z,28.00
2019-05-12T11:59:36.580Z,29.63
2019-05-12T12:00:36.615Z,30.69
2019-05-12T12:01:39.545Z,28.67
2019-05-12T12:02:36.670Z,29.93
2019-05-12T12:03:36.696Z,27.40
2019-05-12T12:04:36.738Z,27.89
2019-05-12T12:05:38.372Z,30.39
2019-05-12T12:06:36.788Z,30.19
2019-05-12T12:07:39.373Z,28.85
2019-05-12T12:08:37.412Z,30.10
2019-05-12T12:09:36.878Z,29.72
2019-05-12T12:10:39.774Z,30.00
2019-05-12T12:11:36.927Z,31.16
2019-05-12T12:12:39.644Z,30.58
2019-05-12T12:13:36.977Z,31.16
2019-05-12T12:14:40.159Z,31.15
2019-05-12T12:15:37.035Z,29.90
2019-05-12T12:16:41.972Z,29.13
2019-05-12T12:17:37.095Z,29.22
2019-05-12T12:18:37.117Z,29.03
2019-05-12T12:19:43.731Z,29.51
2019-05-12T12:20:37.183Z,29.22
2019-05-12T12:21:40.424Z,27.87
2019-05-12T12:22:37.230Z,29.61
2019-05-12T12:23:41.017Z,29.13
2019-05-12T12:24:38.396Z,29.32
2019-05-12T12:25:37.310Z,30.18
2019-05-12T12:26:37.475Z,29.03
2019-05-12T12:27:37.376Z,29.49
2019-05-12T12:28:37.394Z,28.53
2019-05-12T12:29:37.437Z,27.86
2019-05-12T12:30:37.446Z,29.49
2019-05-12T12:31:38.922Z,29.49
2019-05-12T12:32:37.509Z,28.82
2019-05-12T12:33:40.707Z,29.79
2019-05-12T12:34:37.557Z,30.26
2019-05-12T12:35:37.585Z,29.21
2019-05-12T12:36:37.628Z,29.02
2019-05-12T12:37:37.650Z,30.84
2019-05-12T12:38:37.669Z,31.43
2019-05-12T12:39:37.707Z,30.93
2019-05-12T12:40:37.737Z,29.30
2019-05-12T12:41:37.756Z,29.69
2019-05-12T12:42:44.159Z,30.55
2019-05-12T12:43:37.805Z,30.84
2019-05-12T12:44:37.845Z,30.26
2019-05-12T12:45:40.336Z,29.88
2019-05-12T12:46:37.887Z,30.07
2019-05-12T12:47:46.711Z,30.07
2019-05-12T12:48:37.951Z,29.88
2019-05-12T12:49:39.962Z,30.26
2019-05-12T12:50:37.997Z,30.65
2019-05-12T12:51:38.024Z,30.17
2019-05-12T12:52:38.700Z,30.07